Terminal Aerodrome Forecast
Issued by NWS

Home | Current Version | Previous Version | Text Only | Print | Product List | Glossary Off
Versions: 1 2 3 4 5 6 7 8 9 10 11 12 13 14 15 16 17 18 19 20

435
FTUS43 KGRB 210520
TAFAUW
TAF
KAUW 210520Z 2106/2206 17007KT P6SM SCT250
     FM210800 18005KT 5SM BR SCT006 BKN025 WS012/23035KT
      TEMPO 2108/2112 3SM BR BKN006
     FM211200 18005KT 3SM BR BKN008
      TEMPO 2113/2116 3SM TSRA BR BKN005CB
     FM211600 22009G16KT P6SM BKN014
     FM211800 23011G22KT P6SM SCT030 PROB30 2120/2124 2SM TSRA
      BKN018CB
     FM220200 24003KT 5SM BR SCT250=

USA.gov is the U.S. government's official web portal to all federal, state and local government web resources and services.